createdAt,value
2022-09-29T03:45:51.383Z,7.97
2022-09-29T03:48:55.069Z,6.35
2022-09-29T03:55:00.532Z,8.63
2022-09-29T03:58:04.995Z,5.47
2022-09-29T04:01:08.100Z,4.82
2022-09-29T04:07:15.750Z,6.07
2022-09-29T04:10:18.832Z,4.55
2022-09-29T04:13:24.370Z,5.75
2022-09-29T04:16:27.255Z,4.55
2022-09-29T04:19:29.935Z,4.87
2022-09-29T04:22:32.729Z,8.05
2022-09-29T04:25:35.530Z,6.57
2022-09-29T04:28:39.549Z,4.72
2022-09-29T04:31:42.296Z,4.70
2022-09-29T04:34:45.216Z,5.75
2022-09-29T04:37:47.809Z,5.37
2022-09-29T04:40:50.901Z,5.37
2022-09-29T04:43:53.720Z,5.47
2022-09-29T04:46:56.496Z,4.62
2022-09-29T04:49:59.044Z,7.97
2022-09-29T04:53:04.061Z,6.93
2022-09-29T04:56:08.588Z,4.50
2022-09-29T04:59:15.650Z,6.03
2022-09-29T05:02:21.353Z,5.03
2022-09-29T05:05:24.355Z,5.90
2022-09-29T05:08:27.093Z,6.70
2022-09-29T05:14:32.474Z,5.20
2022-09-29T05:17:35.315Z,5.87
2022-09-29T05:20:44.689Z,5.03
2022-09-29T05:23:50.044Z,5.40
2022-09-29T05:26:57.481Z,5.60
2022-09-29T05:30:01.303Z,6.00
2022-09-29T05:33:04.669Z,6.57
2022-09-29T05:36:09.976Z,6.55
2022-09-29T05:39:12.687Z,5.65
2022-09-29T05:42:15.499Z,5.82
2022-09-29T05:45:19.129Z,5.28
2022-09-29T05:48:25.708Z,8.65
2022-09-29T05:51:28.335Z,5.18
2022-09-29T05:54:31.239Z,9.32
2022-09-29T05:57:33.971Z,5.53
2022-09-29T06:00:37.413Z,8.77
2022-09-29T06:03:40.838Z,4.68
2022-09-29T06:09:47.729Z,4.95
2022-09-29T06:12:50.250Z,5.28
2022-09-29T06:15:53.051Z,5.30
2022-09-29T06:18:56.340Z,4.25
2022-09-29T06:21:59.188Z,5.28
2022-09-29T06:25:02.056Z,5.10
2022-09-29T06:28:05.033Z,7.10
2022-09-29T06:31:11.408Z,5.90
2022-09-29T06:34:14.396Z,6.12
2022-09-29T06:37:37.294Z,4.00
2022-09-29T06:40:43.234Z,3.92
2022-09-29T06:43:45.762Z,3.87
2022-09-29T06:46:48.845Z,2.65
2022-09-29T06:50:02.053Z,2.20
2022-09-29T06:53:10.151Z,3.45
2022-09-29T06:56:12.764Z,1.52
2022-09-29T07:02:19.394Z,2.67
2022-09-29T07:05:22.211Z,1.30
2022-09-29T07:08:24.750Z,1.20
2022-09-29T07:11:28.508Z,1.30
2022-09-29T07:14:31.074Z,1.10
2022-09-29T07:17:33.970Z,1.45
2022-09-29T07:20:37.206Z,0.88
2022-09-29T07:23:41.181Z,0.70
2022-09-29T07:26:44.787Z,0.80
2022-09-29T07:29:59.469Z,1.25
2022-09-29T07:33:05.820Z,0.52
2022-09-29T07:36:09.255Z,0.95
2022-09-29T07:39:11.864Z,0.90
2022-09-29T07:42:14.888Z,1.25
2022-09-29T07:45:18.274Z,0.62
2022-09-29T07:48:21.212Z,1.80
2022-09-29T07:51:24.232Z,2.87
2022-09-29T07:54:29.668Z,1.40
2022-09-29T07:57:33.199Z,1.95
2022-09-29T08:00:36.331Z,0.80
2022-09-29T08:06:42.828Z,0.90
2022-09-29T08:12:48.010Z,1.30
2022-09-29T08:15:57.736Z,1.00
2022-09-29T08:19:01.643Z,1.10
2022-09-29T08:22:04.523Z,2.80
2022-09-29T08:25:07.302Z,1.25
2022-09-29T08:31:21.474Z,1.35
2022-09-29T08:34:24.452Z,0.80
2022-09-29T08:37:28.649Z,3.05
2022-09-29T08:40:34.585Z,1.73
2022-09-29T08:43:41.795Z,1.27
2022-09-29T08:47:10.992Z,0.88
2022-09-29T08:50:35.231Z,1.58
2022-09-29T08:53:57.550Z,1.10
2022-09-29T08:57:05.833Z,0.75
2022-09-29T09:00:14.029Z,0.77
2022-09-29T09:03:38.500Z,0.90
2022-09-29T09:06:44.701Z,0.88
2022-09-29T09:10:02.854Z,0.40
2022-09-29T09:13:20.173Z,0.82
2022-09-29T09:16:37.752Z,0.47
2022-09-29T09:19:40.544Z,0.73
2022-09-29T09:22:58.772Z,0.75
2022-09-29T09:26:04.363Z,0.85
2022-09-29T09:29:36.588Z,0.30
2022-09-29T09:32:49.572Z,0.95
2022-09-29T09:35:59.293Z,0.50
2022-09-29T09:39:10.932Z,0.40
2022-09-29T09:42:21.725Z,0.30
2022-09-29T09:45:33.054Z,0.30
2022-09-29T09:48:41.328Z,1.20
2022-09-29T09:51:50.269Z,0.30
2022-09-29T09:54:56.339Z,0.52
2022-09-29T09:58:33.575Z,0.57
2022-09-29T10:01:36.684Z,0.32
2022-09-29T10:04:39.663Z,0.40
2022-09-29T10:07:42.749Z,0.40
2022-09-29T10:10:57.691Z,0.40
2022-09-29T10:14:06.377Z,0.73
2022-09-29T10:17:13.754Z,0.88
2022-09-29T10:20:29.697Z,0.40
2022-09-29T10:23:34.657Z,1.37
2022-09-29T10:26:44.692Z,0.45
2022-09-29T10:29:53.314Z,0.50
2022-09-29T10:33:00.293Z,0.30
2022-09-29T10:36:08.847Z,0.40
2022-09-29T10:39:40.437Z,1.02
2022-09-29T10:42:47.046Z,0.62
2022-09-29T10:45:50.973Z,0.65
2022-09-29T10:49:21.509Z,0.45
2022-09-29T10:52:26.368Z,0.50
2022-09-29T10:55:33.321Z,0.68
2022-09-29T10:58:59.031Z,1.30
2022-09-29T11:02:04.255Z,0.62
2022-09-29T11:05:20.068Z,0.88
2022-09-29T11:08:28.083Z,1.12
2022-09-29T11:11:38.804Z,0.93
2022-09-29T11:14:43.023Z,1.20
2022-09-29T11:17:50.497Z,4.68
2022-09-29T11:21:05.380Z,1.02
2022-09-29T11:24:35.470Z,1.05
2022-09-29T11:28:22.565Z,0.95
2022-09-29T11:31:51.330Z,1.25
2022-09-29T11:35:16.273Z,0.90
2022-09-29T11:38:53.491Z,0.75
2022-09-29T11:42:02.235Z,0.80
2022-09-29T11:45:08.302Z,0.68
2022-09-29T11:48:54.178Z,0.60
2022-09-29T11:52:24.954Z,0.20
2022-09-29T11:55:52.048Z,1.05
2022-09-29T11:59:13.310Z,1.10
2022-09-29T12:02:27.521Z,0.20
2022-09-29T12:05:36.365Z,0.50
2022-09-29T12:09:06.908Z,0.40
2022-09-29T12:12:36.701Z,0.15
2022-09-29T12:15:51.329Z,0.30
2022-09-29T12:18:59.870Z,0.37
2022-09-29T12:22:04.332Z,0.52
2022-09-29T12:25:18.872Z,0.25
2022-09-29T12:28:27.429Z,0.20
2022-09-29T12:31:37.235Z,0.52
2022-09-29T12:34:54.131Z,2.60
2022-09-29T12:38:01.295Z,0.20
2022-09-29T12:41:14.091Z,0.32
2022-09-29T12:44:38.560Z,1.90
2022-09-29T12:47:56.222Z,0.20
2022-09-29T12:51:09.717Z,0.40
2022-09-29T12:57:28.053Z,0.40
2022-09-29T13:00:35.147Z,0.32
2022-09-29T13:03:54.412Z,0.30
2022-09-29T13:07:07.481Z,0.37
2022-09-29T13:10:27.970Z,0.40
2022-09-29T13:13:45.855Z,0.95
2022-09-29T13:17:25.714Z,0.20
2022-09-29T13:20:59.138Z,0.15
2022-09-29T13:27:37.561Z,0.25
2022-09-29T13:30:41.514Z,0.73
2022-09-29T13:33:55.584Z,0.88
2022-09-29T13:37:12.608Z,0.30
2022-09-29T13:40:21.172Z,0.50
2022-09-29T13:43:59.308Z,0.35
2022-09-29T13:47:31.889Z,0.68
2022-09-29T13:50:40.673Z,0.47
2022-09-29T13:53:43.364Z,0.60
2022-09-29T14:00:16.262Z,0.50
2022-09-29T14:03:32.490Z,0.55
2022-09-29T14:06:47.103Z,0.62
2022-09-29T14:09:50.626Z,0.47
2022-09-29T14:13:04.324Z,1.15
2022-09-29T14:16:28.445Z,0.35
2022-09-29T14:20:00.785Z,1.45
2022-09-29T14:23:06.285Z,0.70
2022-09-29T14:26:47.340Z,0.45
2022-09-29T14:30:08.833Z,0.52
2022-09-29T14:33:41.276Z,0.20
2022-09-29T14:36:47.172Z,1.30
2022-09-29T14:40:10.003Z,0.80
2022-09-29T14:43:15.821Z,1.08
2022-09-29T14:46:58.593Z,1.45
2022-09-29T14:50:38.901Z,0.57
2022-09-29T14:53:53.417Z,1.90
2022-09-29T14:57:25.386Z,1.25
2022-09-29T15:00:57.781Z,1.40
2022-09-29T15:04:15.777Z,0.40
2022-09-29T15:07:21.887Z,0.80
2022-09-29T15:10:28.611Z,0.80
2022-09-29T15:13:31.755Z,0.55
2022-09-29T15:16:55.421Z,0.45
2022-09-29T15:20:25.634Z,1.20
2022-09-29T15:23:52.249Z,0.50
2022-09-29T15:26:54.903Z,1.75
